createdAt,value
2023-02-22T00:02:46.628Z,42.37
2023-02-22T00:07:51.457Z,44.03
2023-02-22T00:12:56.317Z,37.53
2023-02-22T00:17:59.340Z,39.73
2023-02-22T00:23:07.116Z,38.33
2023-02-22T00:28:10.004Z,36.53
2023-02-22T00:33:13.573Z,48.03
2023-02-22T00:38:20.176Z,49.23
2023-02-22T00:43:22.997Z,39.90
2023-02-22T00:48:25.742Z,48.97
2023-02-22T00:53:29.951Z,45.17
2023-02-22T00:58:32.841Z,43.33
2023-02-22T01:03:35.604Z,39.10
2023-02-22T01:08:39.931Z,34.50
2023-02-22T01:13:45.241Z,42.73
2023-02-22T01:18:48.020Z,43.23
2023-02-22T01:23:52.993Z,39.70
2023-02-22T01:28:55.836Z,61.83
2023-02-22T01:33:58.625Z,41.60
2023-02-22T01:39:02.783Z,56.93
2023-02-22T01:44:19.606Z,48.57
2023-02-22T01:49:22.423Z,38.93
2023-02-22T01:54:29.245Z,38.60
2023-02-22T01:59:33.733Z,39.40
2023-02-22T02:04:37.136Z,46.30
2023-02-22T02:09:49.890Z,43.23
2023-02-22T02:14:54.763Z,38.27
2023-02-22T02:20:08.244Z,42.30
2023-02-22T02:25:26.529Z,41.40
2023-02-22T02:30:46.869Z,42.70
2023-02-22T02:35:56.342Z,42.10
2023-02-22T02:41:06.801Z,41.87
2023-02-22T02:46:13.543Z,42.87
2023-02-22T02:51:19.533Z,38.50
2023-02-22T02:56:23.433Z,35.30
2023-02-22T03:01:42.549Z,38.80
2023-02-22T03:06:55.764Z,39.77
2023-02-22T03:12:07.981Z,42.77
2023-02-22T03:17:19.101Z,31.80
2023-02-22T03:22:27.660Z,38.57
2023-02-22T03:27:35.886Z,32.13
2023-02-22T03:32:42.541Z,33.10
2023-02-22T03:37:50.290Z,34.67
2023-02-22T03:42:56.888Z,31.07
2023-02-22T03:48:06.352Z,28.93
2023-02-22T03:53:11.420Z,32.57
2023-02-22T03:58:16.925Z,32.30
2023-02-22T04:03:20.296Z,33.60
2023-02-22T04:08:25.051Z,36.00
2023-02-22T04:13:28.499Z,32.93
2023-02-22T04:18:31.970Z,32.20
2023-02-22T04:23:37.482Z,34.63
2023-02-22T04:28:40.965Z,29.10
2023-02-22T04:33:48.883Z,35.40
2023-02-22T04:38:56.888Z,39.60
2023-02-22T04:43:59.793Z,28.37
2023-02-22T04:49:03.578Z,31.87
2023-02-22T04:54:10.916Z,35.37
2023-02-22T04:59:17.730Z,39.30
2023-02-22T05:04:22.951Z,35.97
2023-02-22T05:09:27.143Z,27.00
2023-02-22T05:14:29.953Z,30.80
2023-02-22T05:19:32.773Z,37.87
2023-02-22T05:24:37.154Z,37.90
2023-02-22T05:29:40.010Z,33.07
2023-02-22T05:34:42.798Z,33.17
2023-02-22T05:39:47.506Z,35.37
2023-02-22T05:44:50.361Z,31.67
2023-02-22T05:49:53.204Z,31.03
2023-02-22T05:54:57.425Z,38.43
2023-02-22T06:00:00.263Z,30.07
2023-02-22T06:05:03.216Z,47.37
2023-02-22T06:10:07.838Z,32.67
2023-02-22T06:15:10.699Z,32.70
2023-02-22T06:20:16.253Z,32.97
2023-02-22T06:25:22.087Z,30.07
2023-02-22T06:30:26.532Z,34.13
2023-02-22T06:35:29.430Z,27.77
2023-02-22T06:40:33.689Z,26.77
2023-02-22T06:45:36.437Z,28.27
2023-02-22T06:50:39.359Z,30.07
2023-02-22T06:55:43.474Z,33.30
2023-02-22T07:00:46.272Z,33.00
2023-02-22T07:05:49.000Z,34.80
2023-02-22T07:10:53.793Z,31.30
2023-02-22T07:15:56.707Z,35.53
2023-02-22T07:20:59.724Z,38.13
2023-02-22T07:26:05.593Z,30.07
2023-02-22T07:31:08.396Z,44.23
2023-02-22T07:36:13.681Z,34.00
2023-02-22T07:41:18.167Z,38.93
2023-02-22T07:46:21.345Z,35.53
2023-02-22T07:51:24.359Z,33.07
2023-02-22T07:56:28.684Z,33.47
2023-02-22T08:01:31.967Z,41.17
2023-02-22T08:06:34.832Z,42.03
2023-02-22T08:11:39.164Z,34.60
2023-02-22T08:16:42.101Z,33.27
2023-02-22T08:21:44.909Z,35.73
2023-02-22T08:26:49.043Z,32.77
2023-02-22T08:31:54.064Z,28.53
2023-02-22T08:36:57.184Z,38.90
2023-02-22T08:42:01.356Z,38.83
2023-02-22T08:47:04.413Z,39.30
2023-02-22T08:52:07.230Z,36.73
2023-02-22T08:57:11.699Z,35.37
2023-02-22T09:02:16.713Z,31.60
2023-02-22T09:07:19.686Z,31.17
2023-02-22T09:12:23.880Z,36.10
2023-02-22T09:17:26.740Z,32.87
2023-02-22T09:22:29.502Z,30.77
2023-02-22T09:27:33.621Z,33.97
2023-02-22T09:32:37.777Z,36.90
2023-02-22T09:37:44.578Z,38.83
2023-02-22T09:42:56.499Z,32.63
2023-02-22T09:48:15.259Z,35.40
2023-02-22T09:53:29.856Z,33.00
2023-02-22T09:58:35.689Z,30.33
2023-02-22T10:03:47.901Z,32.40
2023-02-22T10:08:53.887Z,36.87
2023-02-22T10:14:03.837Z,29.80
2023-02-22T10:19:18.226Z,28.57
2023-02-22T10:24:33.778Z,29.93
2023-02-22T10:29:41.750Z,28.57
2023-02-22T10:34:48.486Z,32.13
2023-02-22T10:39:52.893Z,32.83
2023-02-22T10:44:57.252Z,26.70
2023-02-22T10:50:01.448Z,25.63
2023-02-22T10:55:15.226Z,26.50
2023-02-22T11:00:26.281Z,31.27
2023-02-22T11:05:31.861Z,29.23
2023-02-22T11:10:38.729Z,25.93
2023-02-22T11:15:44.221Z,25.73
2023-02-22T11:20:47.067Z,29.30
2023-02-22T11:25:51.861Z,25.50
2023-02-22T11:30:56.838Z,29.27
2023-02-22T11:36:02.391Z,21.97
2023-02-22T11:41:15.610Z,31.27
2023-02-22T11:46:21.804Z,21.87
2023-02-22T11:51:36.473Z,22.43
2023-02-22T11:56:43.643Z,17.57
2023-02-22T12:01:52.420Z,18.10
2023-02-22T12:07:05.826Z,21.50
2023-02-22T12:12:15.991Z,18.73
2023-02-22T12:17:31.972Z,21.00
2023-02-22T12:22:37.970Z,19.67
2023-02-22T12:28:10.051Z,19.03
2023-02-22T12:33:24.260Z,24.60
2023-02-22T12:38:33.833Z,23.03
2023-02-22T12:43:42.002Z,15.30
2023-02-22T12:48:51.986Z,19.03
2023-02-22T12:54:01.437Z,20.00
2023-02-22T12:59:09.149Z,19.83
2023-02-22T13:04:20.938Z,19.43
2023-02-22T13:09:38.613Z,20.50
2023-02-22T13:14:50.734Z,19.13
2023-02-22T13:20:00.245Z,18.40
2023-02-22T13:25:09.438Z,20.93
2023-02-22T13:30:18.454Z,19.27
2023-02-22T13:35:37.484Z,16.27
2023-02-22T13:40:50.757Z,23.93
2023-02-22T13:46:07.583Z,9.57
2023-02-22T13:51:15.921Z,19.20
2023-02-22T13:56:20.134Z,17.67
2023-02-22T14:01:45.694Z,17.83
2023-02-22T14:06:51.258Z,19.17
2023-02-22T14:11:57.080Z,18.07
2023-02-22T14:17:25.970Z,18.80
2023-02-22T14:22:31.297Z,18.43
2023-02-22T14:27:40.997Z,19.47
2023-02-22T14:32:44.081Z,21.73
2023-02-22T14:37:50.597Z,20.73
2023-02-22T14:43:01.951Z,20.50
2023-02-22T14:48:13.648Z,21.10
2023-02-22T14:53:25.387Z,21.17
2023-02-22T14:58:33.341Z,22.50
2023-02-22T15:03:38.224Z,24.63
2023-02-22T15:08:42.694Z,20.33
2023-02-22T15:13:50.920Z,22.83
2023-02-22T15:18:55.038Z,22.47
2023-02-22T15:24:00.758Z,21.83
2023-02-22T15:29:09.231Z,16.73
2023-02-22T15:34:24.441Z,22.63
2023-02-22T15:39:33.158Z,28.20
2023-02-22T15:44:38.693Z,21.97
2023-02-22T15:49:41.525Z,17.07
2023-02-22T15:54:48.804Z,20.47
2023-02-22T15:59:53.706Z,24.63
2023-02-22T16:04:59.939Z,24.87
2023-02-22T16:10:09.199Z,21.13
2023-02-22T16:15:17.491Z,19.80
2023-02-22T16:20:36.225Z,23.27
2023-02-22T16:25:40.482Z,23.87
2023-02-22T16:30:43.463Z,23.80
2023-02-22T16:36:09.415Z,27.63
2023-02-22T16:41:16.155Z,30.97
2023-02-22T16:46:21.470Z,23.23
2023-02-22T16:51:27.146Z,30.20
2023-02-22T16:56:32.421Z,28.40
2023-02-22T17:01:35.663Z,38.53
2023-02-22T17:06:38.752Z,30.63
2023-02-22T17:11:43.925Z,30.73
2023-02-22T17:16:47.643Z,38.37
2023-02-22T17:21:51.407Z,42.23
2023-02-22T17:26:57.419Z,34.87
2023-02-22T17:32:00.422Z,42.17
2023-02-22T17:37:04.803Z,37.47
2023-02-22T17:42:09.176Z,35.10
2023-02-22T17:47:12.021Z,39.20
2023-02-22T17:52:15.992Z,38.20
2023-02-22T17:57:20.248Z,38.53
2023-02-22T18:02:23.160Z,39.30
2023-02-22T18:07:26.356Z,39.13
2023-02-22T18:12:31.149Z,46.93
2023-02-22T18:17:34.024Z,37.43
2023-02-22T18:22:36.858Z,42.27
2023-02-22T18:27:43.178Z,43.53
2023-02-22T18:32:46.399Z,37.83
2023-02-22T18:37:49.442Z,36.13
2023-02-22T18:42:53.683Z,46.00
2023-02-22T18:47:56.568Z,37.73
2023-02-22T18:52:59.473Z,40.33
2023-02-22T18:58:04.805Z,39.60
2023-02-22T19:03:07.750Z,39.00
2023-02-22T19:08:11.378Z,39.30
2023-02-22T19:13:16.664Z,38.40
2023-02-22T19:18:20.615Z,45.47
2023-02-22T19:23:23.681Z,43.17
2023-02-22T19:28:33.983Z,39.13
2023-02-22T19:33:37.021Z,40.57
2023-02-22T19:38:40.448Z,37.47
2023-02-22T19:43:44.647Z,47.13
2023-02-22T19:48:47.537Z,41.93
2023-02-22T19:53:50.496Z,39.03
2023-02-22T19:58:56.315Z,39.87
2023-02-22T20:04:03.702Z,48.07
2023-02-22T20:09:07.943Z,47.50
2023-02-22T20:14:17.766Z,43.37
2023-02-22T20:19:22.463Z,44.70
2023-02-22T20:24:27.617Z,42.50
2023-02-22T20:29:31.821Z,50.30
2023-02-22T20:34:36.202Z,44.20
2023-02-22T20:39:39.109Z,39.37
2023-02-22T20:44:44.973Z,41.00
2023-02-22T20:49:47.835Z,43.57
2023-02-22T20:54:50.601Z,47.70
2023-02-22T20:59:54.850Z,47.70
2023-02-22T21:04:58.111Z,48.50
2023-02-22T21:10:00.931Z,52.37
2023-02-22T21:15:07.065Z,38.90
2023-02-22T21:20:12.140Z,36.20
2023-02-22T21:25:16.574Z,56.20
2023-02-22T21:30:20.890Z,47.93
2023-02-22T21:35:24.273Z,48.23
2023-02-22T21:40:27.511Z,47.53
2023-02-22T21:45:31.812Z,48.03
2023-02-22T21:50:37.717Z,47.67
2023-02-22T21:55:40.896Z,37.37
2023-02-22T22:00:45.480Z,46.80
2023-02-22T22:05:49.062Z,39.83
2023-02-22T22:10:55.270Z,47.33
2023-02-22T22:16:05.857Z,42.33
2023-02-22T22:21:13.918Z,42.50
2023-02-22T22:26:19.976Z,40.57
2023-02-22T22:31:25.864Z,44.73
2023-02-22T22:36:28.990Z,42.93
2023-02-22T22:41:33.827Z,36.90
2023-02-22T22:46:40.958Z,40.00
2023-02-22T22:51:47.367Z,45.87
2023-02-22T22:56:50.300Z,36.87
2023-02-22T23:01:56.642Z,49.07
2023-02-22T23:07:00.553Z,48.33
2023-02-22T23:12:09.450Z,41.30
2023-02-22T23:17:15.332Z,40.50
2023-02-22T23:22:18.141Z,43.57
2023-02-22T23:27:20.872Z,37.70
2023-02-22T23:32:26.748Z,41.57
2023-02-22T23:37:35.356Z,40.93
2023-02-22T23:42:38.765Z,40.63
2023-02-22T23:47:43.809Z,39.93
2023-02-22T23:52:46.713Z,39.33
2023-02-22T23:57:49.589Z,32.47
